Time;durP1;ratioP1;P1;durP2;ratioP2;P2;SDS_P1;SDS_P2;PMS_P1;PMS_P2;Temp;Humidity;BMP_temperature;BMP_pressure;BME280_temperature;BME280_humidity;BME280_pressure;Samples;Min_cycle;Max_cycle;Signal;HPM_P1;HPM_P2
2024/01/12 00:01:12;;;;;;;;;;;21.20;29.80;;;;;;5017169;28;19925;-56
2024/01/12 00:03:39;;;;;;;;;;;21.20;29.90;;;;;;5016785;28;19925;-56
2024/01/12 00:06:06;;;;;;;;;;;21.20;29.90;;;;;;5016816;28;19958;-56
2024/01/12 00:08:33;;;;;;;;;;;21.20;29.80;;;;;;5016558;28;19933;-55
2024/01/12 00:11:00;;;;;;;;;;;21.20;29.90;;;;;;5016662;28;19979;-55
2024/01/12 00:13:27;;;;;;;;;;;21.20;29.90;;;;;;5016890;28;19925;-55
2024/01/12 00:15:54;;;;;;;;;;;21.20;29.90;;;;;;5016693;28;19926;-54
2024/01/12 00:18:21;;;;;;;;;;;21.30;29.90;;;;;;5016809;28;19973;-55
2024/01/12 00:20:48;;;;;;;;;;;21.30;29.90;;;;;;5016762;28;19926;-55
2024/01/12 00:23:16;;;;;;;;;;;21.30;29.80;;;;;;5016721;28;20298;-55
2024/01/12 00:25:43;;;;;;;;;;;21.30;29.80;;;;;;5016375;28;19979;-56
2024/01/12 00:28:09;;;;;;;;;;;21.20;29.70;;;;;;5016141;28;19978;-54
2024/01/12 00:30:41;;;;;;;;;;;21.20;29.70;;;;;;5016451;28;19932;-57
2024/01/12 00:33:08;;;;;;;;;;;21.20;29.70;;;;;;5016285;28;19929;-54
2024/01/12 00:35:35;;;;;;;;;;;21.20;29.80;;;;;;4998969;28;19937;-54
2024/01/12 00:38:02;;;;;;;;;;;21.20;29.80;;;;;;5016046;28;20513;-52
2024/01/12 00:40:29;;;;;;;;;;;21.20;29.80;;;;;;5016107;28;19930;-54
2024/01/12 00:42:56;;;;;;;;;;;21.10;29.80;;;;;;5016334;28;19926;-57
2024/01/12 00:45:23;;;;;;;;;;;21.10;29.80;;;;;;5016298;28;19925;-55
2024/01/12 00:47:50;;;;;;;;;;;21.20;29.90;;;;;;5015829;28;19981;-56
2024/01/12 00:50:17;;;;;;;;;;;21.10;29.80;;;;;;5015710;28;19980;-55
2024/01/12 00:52:44;;;;;;;;;;;21.10;29.80;;;;;;5015810;28;19976;-54
2024/01/12 00:55:11;;;;;;;;;;;21.10;30.20;;;;;;5015483;28;19932;-56
2024/01/12 00:57:38;;;;;;;;;;;21.10;29.80;;;;;;5016035;28;19926;-56
2024/01/12 01:00:05;;;;;;;;;;;21.10;29.80;;;;;;5015645;28;19925;-56
2024/01/12 01:02:32;;;;;;;;;;;21.10;29.80;;;;;;5015797;28;19930;-56
2024/01/12 01:04:59;;;;;;;;;;;21.10;29.90;;;;;;4998660;28;19973;-55
2024/01/12 01:07:28;;;;;;;;;;;21.10;29.90;;;;;;5015688;28;19936;-56
2024/01/12 01:09:55;;;;;;;;;;;21.10;29.90;;;;;;5015479;28;19929;-56
2024/01/12 01:12:22;;;;;;;;;;;21.10;29.80;;;;;;5015751;28;19929;-57
2024/01/12 01:14:49;;;;;;;;;;;21.10;29.80;;;;;;5015754;28;19926;-53
2024/01/12 01:17:16;;;;;;;;;;;21.10;29.90;;;;;;5015704;28;20004;-55
2024/01/12 01:19:43;;;;;;;;;;;21.10;29.90;;;;;;5015656;28;19980;-55
2024/01/12 01:22:10;;;;;;;;;;;21.10;29.80;;;;;;5015253;28;20371;-55
2024/01/12 01:24:37;;;;;;;;;;;21.20;29.90;;;;;;5015697;28;20282;-56
2024/01/12 01:27:04;;;;;;;;;;;21.20;29.80;;;;;;5015656;28;19932;-52
2024/01/12 01:29:31;;;;;;;;;;;21.20;29.80;;;;;;5015197;28;20383;-54
2024/01/12 01:31:58;;;;;;;;;;;21.20;29.80;;;;;;5015053;28;19929;-57
2024/01/12 01:34:25;;;;;;;;;;;21.10;29.70;;;;;;5014887;28;19972;-55
2024/01/12 01:36:57;;;;;;;;;;;21.10;29.70;;;;;;5015479;28;20276;-55
2024/01/12 01:39:24;;;;;;;;;;;21.10;29.70;;;;;;5015034;28;19926;-57
2024/01/12 01:41:51;;;;;;;;;;;21.10;29.80;;;;;;5014803;28;20028;-53
2024/01/12 01:44:18;;;;;;;;;;;21.10;29.80;;;;;;5014765;28;19925;-56
2024/01/12 01:46:44;;;;;;;;;;;21.10;29.80;;;;;;5015268;28;19929;-56
2024/01/12 01:49:11;;;;;;;;;;;21.10;29.80;;;;;;5014925;28;20288;-55
2024/01/12 01:51:39;;;;;;;;;;;21.10;29.80;;;;;;5015100;28;19929;-54
2024/01/12 01:54:06;;;;;;;;;;;21.00;30.00;;;;;;5014848;28;19925;-53
2024/01/12 01:56:33;;;;;;;;;;;21.10;29.90;;;;;;5014584;28;20318;-56
2024/01/12 01:59:00;;;;;;;;;;;21.00;29.80;;;;;;5015038;28;19925;-56
2024/01/12 02:01:27;;;;;;;;;;;21.00;29.80;;;;;;5014823;28;20421;-55
2024/01/12 02:03:54;;;;;;;;;;;21.00;29.80;;;;;;5014377;28;19925;-58
2024/01/12 02:06:21;;;;;;;;;;;21.10;29.90;;;;;;5014503;28;19936;-54
2024/01/12 02:08:49;;;;;;;;;;;21.00;29.80;;;;;;5014048;28;19929;-55
2024/01/12 02:11:16;;;;;;;;;;;21.00;29.80;;;;;;5014589;28;19972;-54
2024/01/12 02:13:42;;;;;;;;;;;21.00;29.80;;;;;;5014627;28;19925;-56
2024/01/12 02:16:09;;;;;;;;;;;21.00;29.80;;;;;;5014534;28;19925;-56
2024/01/12 02:18:36;;;;;;;;;;;21.00;29.80;;;;;;5014674;28;20267;-53
2024/01/12 02:21:03;;;;;;;;;;;21.00;29.80;;;;;;5014682;28;19969;-55
2024/01/12 02:23:30;;;;;;;;;;;21.00;29.90;;;;;;5014168;28;19925;-56
2024/01/12 02:25:58;;;;;;;;;;;21.00;29.80;;;;;;5014097;28;19979;-56
2024/01/12 02:28:25;;;;;;;;;;;21.10;29.80;;;;;;5014127;28;19929;-53
2024/01/12 02:30:52;;;;;;;;;;;21.10;29.80;;;;;;5014267;28;19926;-54
2024/01/12 02:33:19;;;;;;;;;;;21.10;29.80;;;;;;5014018;28;19931;-56
2024/01/12 02:35:46;;;;;;;;;;;21.10;29.80;;;;;;5013888;28;19926;-55
2024/01/12 02:38:13;;;;;;;;;;;21.00;29.70;;;;;;5013947;28;19932;-54
2024/01/12 02:40:40;;;;;;;;;;;21.00;29.80;;;;;;5014208;28;19925;-54
2024/01/12 02:43:07;;;;;;;;;;;21.00;29.80;;;;;;5014197;28;19984;-54
2024/01/12 02:45:34;;;;;;;;;;;21.00;29.80;;;;;;5013810;28;20484;-55
2024/01/12 02:48:01;;;;;;;;;;;21.00;29.80;;;;;;5013538;28;20390;-52
2024/01/12 02:50:28;;;;;;;;;;;21.00;29.80;;;;;;5014088;28;19995;-52
2024/01/12 02:52:55;;;;;;;;;;;21.00;29.80;;;;;;5013641;28;19926;-56
2024/01/12 02:55:22;;;;;;;;;;;21.00;29.80;;;;;;5013674;28;19925;-54
2024/01/12 02:57:49;;;;;;;;;;;21.00;29.80;;;;;;5013834;28;19925;-54
2024/01/12 03:00:16;;;;;;;;;;;21.00;29.80;;;;;;5013877;28;19925;-55
2024/01/12 03:02:43;;;;;;;;;;;21.00;29.80;;;;;;5013650;28;20026;-54
2024/01/12 03:05:10;;;;;;;;;;;21.00;29.80;;;;;;5013505;28;19925;-55
2024/01/12 03:07:37;;;;;;;;;;;21.00;29.80;;;;;;5013397;28;19938;-54
2024/01/12 03:10:05;;;;;;;;;;;21.00;29.80;;;;;;5013364;28;19980;-56
2024/01/12 03:12:31;;;;;;;;;;;20.90;29.80;;;;;;5013761;28;19972;-55
2024/01/12 03:14:58;;;;;;;;;;;20.90;29.80;;;;;;5032446;28;19934;-56
2024/01/12 03:17:25;;;;;;;;;;;20.90;30.30;;;;;;5033459;28;19979;-55
2024/01/12 03:19:53;;;;;;;;;;;20.90;30.00;;;;;;5033212;28;19925;-56
2024/01/12 03:22:20;;;;;;;;;;;20.90;29.80;;;;;;5033008;28;19929;-54
2024/01/12 03:24:46;;;;;;;;;;;20.90;29.80;;;;;;5033356;28;19931;-54
2024/01/12 03:27:13;;;;;;;;;;;20.90;29.90;;;;;;5033579;28;20025;-56
2024/01/12 03:29:40;;;;;;;;;;;20.90;30.00;;;;;;5033079;28;19948;-53
2024/01/12 03:32:07;;;;;;;;;;;20.90;29.90;;;;;;5032880;28;19925;-53
2024/01/12 03:34:34;;;;;;;;;;;21.00;29.90;;;;;;5033095;28;19932;-55
2024/01/12 03:37:01;;;;;;;;;;;21.00;29.80;;;;;;5033294;28;19932;-54
2024/01/12 03:39:28;;;;;;;;;;;21.00;29.80;;;;;;5033119;28;19925;-55
2024/01/12 03:41:55;;;;;;;;;;;21.00;29.80;;;;;;5033121;28;20051;-53
2024/01/12 03:44:22;;;;;;;;;;;20.90;29.80;;;;;;5033101;28;19925;-52
2024/01/12 03:46:49;;;;;;;;;;;20.90;29.80;;;;;;5033280;28;20008;-54
2024/01/12 03:49:17;;;;;;;;;;;20.90;29.80;;;;;;5032808;28;19929;-55
2024/01/12 03:51:44;;;;;;;;;;;20.90;29.80;;;;;;5033038;28;19932;-53
2024/01/12 03:54:11;;;;;;;;;;;20.90;30.20;;;;;;5033182;28;19926;-54
2024/01/12 03:56:38;;;;;;;;;;;20.90;29.80;;;;;;5032830;28;19925;-55
2024/01/12 03:59:05;;;;;;;;;;;20.90;29.80;;;;;;5032832;28;19925;-56
2024/01/12 04:01:32;;;;;;;;;;;20.90;29.90;;;;;;5032825;28;19925;-56
2024/01/12 04:03:59;;;;;;;;;;;20.90;29.80;;;;;;5032647;28;19925;-55
2024/01/12 04:06:26;;;;;;;;;;;20.90;29.80;;;;;;5032792;28;20390;-56
2024/01/12 04:08:53;;;;;;;;;;;20.80;29.80;;;;;;5032798;28;19964;-55
2024/01/12 04:11:22;;;;;;;;;;;20.80;29.80;;;;;;5032861;28;20337;-56
2024/01/12 04:13:49;;;;;;;;;;;20.80;29.80;;;;;;5032763;28;19925;-55
2024/01/12 04:16:16;;;;;;;;;;;20.80;29.80;;;;;;5032677;28;19929;-55
2024/01/12 04:18:42;;;;;;;;;;;20.80;29.80;;;;;;5032627;28;20016;-55
2024/01/12 04:21:10;;;;;;;;;;;20.80;29.80;;;;;;5032960;28;19971;-55
2024/01/12 04:23:38;;;;;;;;;;;20.80;29.80;;;;;;5032595;28;19925;-54
2024/01/12 04:26:05;;;;;;;;;;;20.80;29.90;;;;;;5032727;28;19995;-55
2024/01/12 04:28:32;;;;;;;;;;;20.80;29.90;;;;;;5031768;28;19932;-54
2024/01/12 04:31:03;;;;;;;;;;;20.80;29.80;;;;;;5033421;28;19925;-54
2024/01/12 04:33:31;;;;;;;;;;;20.80;29.90;;;;;;5035830;28;19972;-56
2024/01/12 04:35:59;;;;;;;;;;;20.80;29.90;;;;;;5035972;28;19925;-56
2024/01/12 04:38:26;;;;;;;;;;;20.90;29.80;;;;;;5036076;28;19929;-52
2024/01/12 04:40:53;;;;;;;;;;;20.90;29.60;;;;;;5035709;28;20044;-57
2024/01/12 04:43:20;;;;;;;;;;;20.90;29.40;;;;;;5030988;28;20298;-56
2024/01/12 04:45:47;;;;;;;;;;;20.90;29.70;;;;;;5032331;28;19940;-55
2024/01/12 04:48:14;;;;;;;;;;;20.90;29.10;;;;;;5024659;28;19925;-51
2024/01/12 04:50:41;;;;;;;;;;;20.90;29.00;;;;;;5016096;28;19968;-54
2024/01/12 04:53:08;;;;;;;;;;;20.90;29.00;;;;;;5016125;28;19972;-52
2024/01/12 04:55:35;;;;;;;;;;;20.90;29.00;;;;;;5032031;28;19951;-55
2024/01/12 04:58:03;;;;;;;;;;;20.80;28.90;;;;;;5035488;28;20036;-55
2024/01/12 05:00:30;;;;;;;;;;;20.90;28.90;;;;;;5028521;28;19929;-55
2024/01/12 05:02:57;;;;;;;;;;;20.80;28.90;;;;;;5033108;28;19984;-58
2024/01/12 05:05:24;;;;;;;;;;;20.80;28.80;;;;;;5035483;28;19979;-56
2024/01/12 05:07:51;;;;;;;;;;;20.80;28.80;;;;;;5035327;28;19925;-56
2024/01/12 05:10:18;;;;;;;;;;;20.80;28.80;;;;;;5035275;28;20430;-54
2024/01/12 05:12:45;;;;;;;;;;;20.80;28.70;;;;;;5035259;28;19988;-55
2024/01/12 05:15:12;;;;;;;;;;;20.80;28.70;;;;;;5035514;28;20019;-54
2024/01/12 05:17:39;;;;;;;;;;;20.80;28.60;;;;;;5035233;28;20385;-54
2024/01/12 05:20:06;;;;;;;;;;;20.80;28.60;;;;;;5034132;28;19967;-54
2024/01/12 05:22:35;;;;;;;;;;;20.80;28.60;;;;;;5033964;28;20028;-55
2024/01/12 05:25:03;;;;;;;;;;;20.80;28.60;;;;;;5031897;28;20440;-53
2024/01/12 05:27:30;;;;;;;;;;;20.80;28.60;;;;;;5034856;28;19925;-54
2024/01/12 05:29:57;;;;;;;;;;;20.80;28.60;;;;;;5032831;28;19929;-54
2024/01/12 05:32:29;;;;;;;;;;;20.90;28.60;;;;;;5016118;28;20350;-56
2024/01/12 05:34:57;;;;;;;;;;;20.80;28.50;;;;;;5033057;28;20405;-55
2024/01/12 05:37:23;;;;;;;;;;;20.80;28.50;;;;;;5029997;28;19948;-56
2024/01/12 05:39:51;;;;;;;;;;;20.90;28.50;;;;;;5025252;28;20434;-55
2024/01/12 05:42:17;;;;;;;;;;;20.90;28.40;;;;;;5026195;28;19925;-54
2024/01/12 05:44:44;;;;;;;;;;;20.90;28.40;;;;;;5030554;28;19934;-54
2024/01/12 05:47:11;;;;;;;;;;;20.90;28.40;;;;;;5014817;28;20278;-53
2024/01/12 05:49:38;;;;;;;;;;;21.00;28.30;;;;;;5030162;28;19925;-53
2024/01/12 05:52:05;;;;;;;;;;;21.00;28.30;;;;;;5030390;28;20279;-56
2024/01/12 05:54:32;;;;;;;;;;;21.00;28.30;;;;;;5025527;28;20229;-55
2024/01/12 05:56:59;;;;;;;;;;;21.00;28.30;;;;;;5026152;28;19983;-54
2024/01/12 05:59:26;;;;;;;;;;;21.00;28.30;;;;;;5034527;28;19947;-55
2024/01/12 06:01:54;;;;;;;;;;;21.00;28.30;;;;;;5033107;28;20408;-56
2024/01/12 06:04:21;;;;;;;;;;;21.00;28.20;;;;;;5034083;28;19975;-56
2024/01/12 06:06:48;;;;;;;;;;;21.00;28.20;;;;;;5001267;28;19952;-55
2024/01/12 06:09:15;;;;;;;;;;;21.00;28.20;;;;;;5020385;28;19980;-57
2024/01/12 06:11:42;;;;;;;;;;;21.00;28.20;;;;;;5024734;28;20345;-59
2024/01/12 06:14:10;;;;;;;;;;;21.10;28.10;;;;;;5032905;28;20294;-50
2024/01/12 06:16:37;;;;;;;;;;;21.10;28.50;;;;;;5027963;28;19928;-57
2024/01/12 06:19:04;;;;;;;;;;;21.10;28.70;;;;;;5027975;28;19925;-59
2024/01/12 06:21:32;;;;;;;;;;;21.10;28.50;;;;;;5026902;28;20297;-58
2024/01/12 06:23:59;;;;;;;;;;;21.20;28.60;;;;;;5022017;28;19972;-56
2024/01/12 06:26:26;;;;;;;;;;;21.30;28.60;;;;;;5025485;28;19976;-57
2024/01/12 06:28:53;;;;;;;;;;;21.40;28.70;;;;;;5024342;28;19925;-58
2024/01/12 06:31:20;;;;;;;;;;;21.50;28.60;;;;;;5023171;28;20422;-57
2024/01/12 06:33:47;;;;;;;;;;;21.50;28.50;;;;;;5022882;28;19933;-59
2024/01/12 06:36:14;;;;;;;;;;;21.60;28.40;;;;;;5019319;28;19980;-58
2024/01/12 06:38:41;;;;;;;;;;;21.80;28.40;;;;;;5018765;28;20333;-56
2024/01/12 06:41:08;;;;;;;;;;;21.90;28.90;;;;;;5023235;28;19933;-59
2024/01/12 06:43:35;;;;;;;;;;;22.00;28.70;;;;;;5019552;28;19933;-59
2024/01/12 06:46:04;;;;;;;;;;;22.10;28.50;;;;;;5012214;28;20379;-59
2024/01/12 06:48:31;;;;;;;;;;;22.10;28.60;;;;;;5020009;28;19929;-58
2024/01/12 06:50:59;;;;;;;;;;;22.20;28.50;;;;;;5020072;28;20428;-58
2024/01/12 06:53:26;;;;;;;;;;;22.30;28.40;;;;;;5019005;28;19929;-59
2024/01/12 06:55:53;;;;;;;;;;;22.40;28.30;;;;;;5016794;28;19952;-59
2024/01/12 06:58:21;;;;;;;;;;;22.50;28.40;;;;;;5001596;28;19929;-60
2024/01/12 07:00:48;;;;;;;;;;;22.60;28.30;;;;;;5018401;28;19929;-59
2024/01/12 07:03:15;;;;;;;;;;;22.60;28.10;;;;;;5013249;28;20693;-59
2024/01/12 07:05:42;;;;;;;;;;;22.70;28.20;;;;;;5020228;28;19926;-59
2024/01/12 07:08:10;;;;;;;;;;;22.70;28.30;;;;;;5020708;28;19929;-59
2024/01/12 07:10:37;;;;;;;;;;;22.80;28.30;;;;;;5025250;28;19925;-59
2024/01/12 07:13:04;;;;;;;;;;;22.90;28.40;;;;;;5009074;28;19930;-59
2024/01/12 07:15:31;;;;;;;;;;;22.90;28.20;;;;;;5005593;28;20064;-59
2024/01/12 07:17:58;;;;;;;;;;;23.00;28.10;;;;;;5005398;28;19929;-60
2024/01/12 07:20:25;;;;;;;;;;;23.00;27.90;;;;;;4999063;28;19926;-59
2024/01/12 07:22:52;;;;;;;;;;;23.10;27.90;;;;;;5001502;28;19925;-59
2024/01/12 07:25:20;;;;;;;;;;;23.10;27.70;;;;;;5001081;28;19933;-60
2024/01/12 07:27:47;;;;;;;;;;;23.20;27.70;;;;;;5002428;28;19937;-60
2024/01/12 07:30:16;;;;;;;;;;;23.30;27.70;;;;;;5001581;28;20028;-60
2024/01/12 07:32:43;;;;;;;;;;;23.30;27.70;;;;;;5000842;28;19925;-60
2024/01/12 07:35:11;;;;;;;;;;;23.30;27.70;;;;;;5000445;28;19932;-60
2024/01/12 07:37:38;;;;;;;;;;;23.30;27.70;;;;;;5002240;28;19932;-59
2024/01/12 07:40:07;;;;;;;;;;;23.30;27.80;;;;;;4997677;28;19937;-60
2024/01/12 07:42:35;;;;;;;;;;;23.30;27.90;;;;;;5004332;28;19933;-60
2024/01/12 07:45:02;;;;;;;;;;;23.30;27.90;;;;;;4984881;28;20302;-60
2024/01/12 07:47:29;;;;;;;;;;;23.20;28.00;;;;;;4996679;28;19934;-61
2024/01/12 07:49:56;;;;;;;;;;;23.20;28.00;;;;;;4997967;28;21264;-57
2024/01/12 07:52:23;;;;;;;;;;;23.20;28.00;;;;;;4992197;28;20061;-58
2024/01/12 07:54:50;;;;;;;;;;;23.20;28.00;;;;;;5003486;28;19940;-58
2024/01/12 07:57:17;;;;;;;;;;;23.10;28.00;;;;;;5003296;28;19953;-58
2024/01/12 07:59:44;;;;;;;;;;;23.10;28.20;;;;;;5000204;28;20004;-56
2024/01/12 08:02:11;;;;;;;;;;;23.10;28.20;;;;;;4999788;28;19930;-57
2024/01/12 08:04:38;;;;;;;;;;;23.10;28.30;;;;;;4999056;28;20389;-58
2024/01/12 08:07:06;;;;;;;;;;;23.10;28.30;;;;;;5001353;28;19940;-59
2024/01/12 08:09:34;;;;;;;;;;;23.10;28.20;;;;;;5003803;28;19934;-59
2024/01/12 08:12:02;;;;;;;;;;;23.10;28.20;;;;;;5004126;28;20008;-58
2024/01/12 08:14:29;;;;;;;;;;;23.10;28.30;;;;;;4993807;28;19929;-58
2024/01/12 08:16:56;;;;;;;;;;;23.10;28.20;;;;;;4999034;28;19986;-58
2024/01/12 08:19:23;;;;;;;;;;;23.10;28.20;;;;;;5006329;28;19940;-60
2024/01/12 08:21:50;;;;;;;;;;;23.10;28.30;;;;;;5007530;28;19981;-59
2024/01/12 08:24:22;;;;;;;;;;;23.00;28.30;;;;;;5000103;28;19929;-59
2024/01/12 08:26:49;;;;;;;;;;;23.10;28.40;;;;;;5008166;28;19925;-59
2024/01/12 08:29:17;;;;;;;;;;;23.00;28.40;;;;;;5005864;28;20007;-58
2024/01/12 08:31:44;;;;;;;;;;;23.00;28.40;;;;;;5004740;28;20388;-59
2024/01/12 08:34:11;;;;;;;;;;;23.00;28.40;;;;;;5004715;28;20070;-64
2024/01/12 08:36:38;;;;;;;;;;;23.00;28.40;;;;;;5006383;28;20032;-61
2024/01/12 08:39:05;;;;;;;;;;;23.00;29.10;;;;;;5000213;28;19933;-59
2024/01/12 08:41:32;;;;;;;;;;;23.00;28.70;;;;;;5003725;28;19968;-61
2024/01/12 08:43:59;;;;;;;;;;;23.00;28.70;;;;;;5004660;28;20011;-61
2024/01/12 08:46:26;;;;;;;;;;;23.00;28.70;;;;;;4999428;28;19941;-60
2024/01/12 08:48:54;;;;;;;;;;;23.00;28.60;;;;;;5002004;28;19925;-59
2024/01/12 08:51:23;;;;;;;;;;;23.00;28.60;;;;;;4991482;28;19930;-61
2024/01/12 08:53:50;;;;;;;;;;;23.00;28.60;;;;;;5001696;28;19929;-60
2024/01/12 08:56:17;;;;;;;;;;;23.00;28.60;;;;;;5003129;28;19926;-61
2024/01/12 08:58:45;;;;;;;;;;;23.00;28.70;;;;;;5004943;28;19932;-60
2024/01/12 09:01:12;;;;;;;;;;;23.00;28.70;;;;;;5003193;28;19929;-59
2024/01/12 09:03:39;;;;;;;;;;;23.10;28.80;;;;;;5005214;28;19968;-60
2024/01/12 09:06:10;;;;;;;;;;;23.10;28.80;;;;;;5001491;28;20012;-61
2024/01/12 09:08:37;;;;;;;;;;;23.10;28.50;;;;;;5005453;28;19925;-60
2024/01/12 09:11:04;;;;;;;;;;;23.10;28.60;;;;;;5003960;28;20083;-61
2024/01/12 09:13:31;;;;;;;;;;;23.10;28.60;;;;;;5003426;28;19980;-59
2024/01/12 09:15:58;;;;;;;;;;;23.10;28.60;;;;;;5006534;28;20331;-60
2024/01/12 09:18:25;;;;;;;;;;;23.10;28.50;;;;;;5004705;28;19941;-59
2024/01/12 09:20:52;;;;;;;;;;;23.10;28.60;;;;;;5005899;28;19987;-59
2024/01/12 09:23:19;;;;;;;;;;;23.10;28.70;;;;;;5004547;28;19933;-59
2024/01/12 09:25:47;;;;;;;;;;;23.10;28.70;;;;;;5004279;28;20379;-59
2024/01/12 09:28:17;;;;;;;;;;;23.10;28.60;;;;;;5003016;28;19925;-59
2024/01/12 09:30:44;;;;;;;;;;;23.10;28.50;;;;;;4998595;28;20099;-59
2024/01/12 09:33:11;;;;;;;;;;;23.10;28.50;;;;;;5004517;28;19929;-59
2024/01/12 09:35:38;;;;;;;;;;;23.10;28.40;;;;;;5007472;28;19987;-60
2024/01/12 09:38:05;;;;;;;;;;;23.10;28.50;;;;;;5001373;28;19933;-60
2024/01/12 09:40:33;;;;;;;;;;;23.10;28.40;;;;;;5005083;28;20036;-60
2024/01/12 09:43:00;;;;;;;;;;;23.10;28.60;;;;;;5003224;28;20334;-59
2024/01/12 09:45:29;;;;;;;;;;;23.10;28.90;;;;;;4986879;28;19932;-60
2024/01/12 09:47:56;;;;;;;;;;;23.10;29.20;;;;;;5004991;28;20028;-61
2024/01/12 09:50:24;;;;;;;;;;;23.10;29.30;;;;;;5004041;28;19953;-59
2024/01/12 09:52:51;;;;;;;;;;;23.10;29.40;;;;;;4989510;28;19926;-60
2024/01/12 09:55:19;;;;;;;;;;;23.10;29.50;;;;;;5003604;28;20378;-58
2024/01/12 09:57:46;;;;;;;;;;;23.10;29.50;;;;;;5007870;28;19979;-58
2024/01/12 10:00:16;;;;;;;;;;;23.10;29.20;;;;;;4999519;28;19925;-59
2024/01/12 10:02:44;;;;;;;;;;;23.10;29.00;;;;;;4999952;28;19941;-58
2024/01/12 10:05:11;;;;;;;;;;;23.20;29.20;;;;;;5004129;28;19936;-59
2024/01/12 10:07:38;;;;;;;;;;;23.20;29.40;;;;;;4996073;28;19926;-59
2024/01/12 10:10:06;;;;;;;;;;;23.20;29.70;;;;;;5004841;28;20032;-58
2024/01/12 10:12:33;;;;;;;;;;;23.30;29.90;;;;;;5003406;28;19926;-59
2024/01/12 10:15:03;;;;;;;;;;;23.30;29.80;;;;;;5003251;28;19929;-59
2024/01/12 10:17:31;;;;;;;;;;;23.30;29.90;;;;;;5004446;28;20011;-58
2024/01/12 10:19:58;;;;;;;;;;;23.30;30.00;;;;;;5004072;28;19930;-60
2024/01/12 10:22:26;;;;;;;;;;;23.40;29.70;;;;;;5004256;28;19933;-59
2024/01/12 10:24:57;;;;;;;;;;;23.40;29.50;;;;;;5002085;28;19956;-59
2024/01/12 10:27:25;;;;;;;;;;;23.40;29.30;;;;;;5001083;28;19933;-58
2024/01/12 10:29:52;;;;;;;;;;;23.40;29.10;;;;;;5004578;28;20338;-59
2024/01/12 10:32:19;;;;;;;;;;;23.40;29.10;;;;;;5002314;28;19933;-58
2024/01/12 10:34:46;;;;;;;;;;;23.40;29.00;;;;;;5006129;28;19926;-58
2024/01/12 10:37:17;;;;;;;;;;;23.40;28.80;;;;;;4999656;28;19936;-58
2024/01/12 10:39:44;;;;;;;;;;;23.40;28.60;;;;;;5002015;28;19937;-58
2024/01/12 10:42:12;;;;;;;;;;;23.40;28.60;;;;;;5005078;28;20302;-58
2024/01/12 10:44:40;;;;;;;;;;;23.40;28.40;;;;;;4998354;28;19933;-58
2024/01/12 10:47:17;;;;;;;;;;;23.40;28.30;;;;;;5000385;28;20370;-59
2024/01/12 10:49:47;;;;;;;;;;;23.40;28.30;;;;;;5004559;28;19933;-60
2024/01/12 10:52:31;;;;;;;;;;;23.40;28.30;;;;;;4992034;28;19952;-61
2024/01/12 10:55:05;;;;;;;;;;;23.40;28.40;;;;;;5009524;28;19969;-62
2024/01/12 10:57:32;;;;;;;;;;;23.30;28.40;;;;;;5004754;28;20410;-60
2024/01/12 11:00:00;;;;;;;;;;;23.30;28.50;;;;;;5005581;28;19925;-59
2024/01/12 11:02:28;;;;;;;;;;;23.30;28.50;;;;;;5004672;28;20024;-59
2024/01/12 11:04:56;;;;;;;;;;;23.30;28.60;;;;;;5007355;28;20660;-61
2024/01/12 11:07:23;;;;;;;;;;;23.30;28.60;;;;;;4990933;28;19930;-59
2024/01/12 11:09:51;;;;;;;;;;;23.30;28.70;;;;;;5003669;28;20012;-59
2024/01/12 11:12:24;;;;;;;;;;;23.30;28.70;;;;;;5004360;28;20079;-59
2024/01/12 11:14:51;;;;;;;;;;;23.30;28.80;;;;;;5008351;28;19933;-58
2024/01/12 11:17:18;;;;;;;;;;;23.30;28.60;;;;;;5001835;28;19948;-59
2024/01/12 11:19:45;;;;;;;;;;;23.40;28.60;;;;;;5005659;28;19929;-59
2024/01/12 11:22:12;;;;;;;;;;;23.40;28.70;;;;;;5001587;28;19926;-59
2024/01/12 11:24:42;;;;;;;;;;;23.40;28.70;;;;;;5004613;28;19952;-59
2024/01/12 11:27:11;;;;;;;;;;;23.40;28.70;;;;;;5002133;28;20302;-59
2024/01/12 11:29:38;;;;;;;;;;;23.40;28.70;;;;;;5001140;28;19964;-59
2024/01/12 11:32:06;;;;;;;;;;;23.40;28.80;;;;;;5001812;28;19932;-60
2024/01/12 11:34:34;;;;;;;;;;;23.40;28.80;;;;;;4987758;28;19934;-60
2024/01/12 11:37:02;;;;;;;;;;;23.40;28.90;;;;;;4994132;28;19940;-60
2024/01/12 11:39:33;;;;;;;;;;;23.40;28.90;;;;;;5008499;28;20375;-59
2024/01/12 11:42:02;;;;;;;;;;;23.40;28.90;;;;;;5004792;28;19940;-61
2024/01/12 11:44:31;;;;;;;;;;;23.40;28.80;;;;;;5006704;28;19984;-60
2024/01/12 11:46:59;;;;;;;;;;;23.40;28.90;;;;;;5003777;28;19987;-59
2024/01/12 11:49:26;;;;;;;;;;;23.50;29.00;;;;;;5008068;28;20358;-60
2024/01/12 11:52:04;;;;;;;;;;;23.50;29.10;;;;;;5005244;28;19934;-59
2024/01/12 11:54:32;;;;;;;;;;;23.50;29.20;;;;;;4996451;28;20032;-59
2024/01/12 11:57:01;;;;;;;;;;;23.50;29.10;;;;;;5001534;28;19980;-58
2024/01/12 11:59:30;;;;;;;;;;;23.50;29.00;;;;;;4986610;28;19937;-60
2024/01/12 12:01:59;;;;;;;;;;;23.50;28.90;;;;;;4999769;28;20310;-59
2024/01/12 12:04:26;;;;;;;;;;;23.50;28.80;;;;;;5002751;28;19983;-59
2024/01/12 12:06:53;;;;;;;;;;;23.50;29.20;;;;;;5001511;28;19933;-58
2024/01/12 12:09:20;;;;;;;;;;;23.50;28.60;;;;;;5002642;28;19933;-59
2024/01/12 12:11:48;;;;;;;;;;;23.50;28.60;;;;;;5001280;28;20003;-58
2024/01/12 12:14:15;;;;;;;;;;;23.50;28.60;;;;;;5003203;28;19932;-59
2024/01/12 12:16:42;;;;;;;;;;;23.50;28.70;;;;;;5005553;28;19992;-59
2024/01/12 12:19:09;;;;;;;;;;;23.50;28.70;;;;;;5002263;28;20376;-58
2024/01/12 12:21:37;;;;;;;;;;;23.50;28.80;;;;;;5006080;28;19925;-58
2024/01/12 12:24:04;;;;;;;;;;;23.60;28.90;;;;;;5007838;28;20355;-58
2024/01/12 12:26:31;;;;;;;;;;;23.60;28.90;;;;;;5005821;28;19933;-58
2024/01/12 12:28:59;;;;;;;;;;;23.60;28.80;;;;;;5010583;28;20017;-58
2024/01/12 12:31:31;;;;;;;;;;;23.60;28.70;;;;;;5010190;28;20016;-58
2024/01/12 12:33:59;;;;;;;;;;;23.60;28.70;;;;;;5008163;28;20020;-58
2024/01/12 12:36:29;;;;;;;;;;;23.60;28.70;;;;;;5005352;28;20033;-58
2024/01/12 12:38:57;;;;;;;;;;;23.60;28.70;;;;;;5010033;28;19930;-58
2024/01/12 12:41:24;;;;;;;;;;;23.60;28.60;;;;;;5004550;28;19929;-59
2024/01/12 12:43:52;;;;;;;;;;;23.60;28.60;;;;;;5005085;28;20096;-58
2024/01/12 12:46:19;;;;;;;;;;;23.60;28.60;;;;;;5005035;28;19933;-58
2024/01/12 12:48:46;;;;;;;;;;;23.60;28.40;;;;;;5005794;28;19925;-58
2024/01/12 12:51:14;;;;;;;;;;;23.60;28.30;;;;;;5002077;28;19925;-59
2024/01/12 12:53:41;;;;;;;;;;;23.60;28.20;;;;;;4997896;28;19929;-58
2024/01/12 12:56:08;;;;;;;;;;;23.60;28.30;;;;;;5008697;28;19930;-60
2024/01/12 12:58:35;;;;;;;;;;;23.50;28.20;;;;;;4995131;28;20456;-60
2024/01/12 13:01:02;;;;;;;;;;;23.50;28.30;;;;;;5007412;28;19926;-60
2024/01/12 13:03:30;;;;;;;;;;;23.50;28.30;;;;;;4999425;28;19929;-59
2024/01/12 13:05:57;;;;;;;;;;;23.50;28.40;;;;;;4992131;28;19968;-59
2024/01/12 13:08:24;;;;;;;;;;;23.50;28.70;;;;;;5005500;28;19937;-59
2024/01/12 13:10:52;;;;;;;;;;;23.50;28.60;;;;;;5011182;28;20337;-58
2024/01/12 13:13:20;;;;;;;;;;;23.50;28.50;;;;;;5001932;28;19925;-60
2024/01/12 13:15:48;;;;;;;;;;;23.50;28.50;;;;;;5009048;28;19926;-59
2024/01/12 13:18:15;;;;;;;;;;;23.50;28.40;;;;;;5003987;28;20007;-59
2024/01/12 13:20:45;;;;;;;;;;;23.50;28.40;;;;;;5010114;28;19925;-59
2024/01/12 13:23:13;;;;;;;;;;;23.50;28.40;;;;;;5002008;28;19984;-59
2024/01/12 13:25:40;;;;;;;;;;;23.50;28.40;;;;;;5003252;28;19933;-59
2024/01/12 13:28:06;;;;;;;;;;;23.50;28.40;;;;;;5001359;28;20040;-59
2024/01/12 13:30:33;;;;;;;;;;;23.50;28.40;;;;;;5013228;28;20306;-59
2024/01/12 13:33:01;;;;;;;;;;;23.50;28.30;;;;;;5011240;28;19926;-59
2024/01/12 13:35:28;;;;;;;;;;;23.50;28.30;;;;;;5008291;28;20375;-59
2024/01/12 13:37:55;;;;;;;;;;;23.40;28.20;;;;;;5004255;28;19957;-59
2024/01/12 13:40:22;;;;;;;;;;;23.40;28.20;;;;;;5010681;28;19925;-59
2024/01/12 13:42:49;;;;;;;;;;;23.40;28.30;;;;;;4991554;28;20371;-59
2024/01/12 13:45:16;;;;;;;;;;;23.40;28.30;;;;;;5008639;28;19973;-59
2024/01/12 13:47:43;;;;;;;;;;;23.40;28.30;;;;;;5016421;28;19932;-58
2024/01/12 13:50:10;;;;;;;;;;;23.40;28.40;;;;;;5003238;28;19934;-59
2024/01/12 13:52:37;;;;;;;;;;;23.30;28.30;;;;;;5012599;28;19973;-59
2024/01/12 13:55:05;;;;;;;;;;;23.30;28.40;;;;;;5010429;28;20358;-59
2024/01/12 13:57:32;;;;;;;;;;;23.30;28.50;;;;;;5006683;28;19980;-59
2024/01/12 13:59:58;;;;;;;;;;;23.30;28.50;;;;;;4982165;28;19927;-56
2024/01/12 14:02:26;;;;;;;;;;;23.30;28.50;;;;;;5011339;28;20382;-58
2024/01/12 14:04:53;;;;;;;;;;;23.30;28.80;;;;;;5013963;28;19933;-59
2024/01/12 14:07:40;;;;;;;;;;;23.20;29.00;;;;;;5013062;28;19926;-59
2024/01/12 14:10:08;;;;;;;;;;;23.20;29.10;;;;;;5013568;28;19964;-58
2024/01/12 14:12:35;;;;;;;;;;;23.20;29.10;;;;;;5014181;28;19944;-57
2024/01/12 14:15:02;;;;;;;;;;;23.20;29.20;;;;;;5013895;28;20001;-58
2024/01/12 14:17:29;;;;;;;;;;;23.10;29.20;;;;;;5014123;28;19929;-58